Time;durP1;ratioP1;P1;durP2;ratioP2;P2;SDS_P1;SDS_P2;PMS_P1;PMS_P2;Temp;Humidity;BMP_temperature;BMP_pressure;BME280_temperature;BME280_humidity;BME280_pressure;Samples;Min_cycle;Max_cycle;Signal;HPM_P1;HPM_P2
2023/07/19 00:02:22;;;;;;;22.30;20.33;;;11.80;99.90;;;;;;5036733;28;20045;-71
2023/07/19 00:04:49;;;;;;;21.52;20.08;;;11.80;99.90;;;;;;5037983;28;20451;-71
2023/07/19 00:07:15;;;;;;;22.08;20.27;;;11.90;99.90;;;;;;5028186;28;20049;-71
2023/07/19 00:09:42;;;;;;;22.00;20.15;;;11.70;99.90;;;;;;5043625;28;20156;-71
2023/07/19 00:12:09;;;;;;;22.10;20.30;;;11.80;99.90;;;;;;5037136;28;20036;-70
2023/07/19 00:14:36;;;;;;;22.13;20.15;;;11.80;99.90;;;;;;5034445;28;20090;-70
2023/07/19 00:17:03;;;;;;;21.23;19.55;;;11.90;99.90;;;;;;5026497;28;20802;-70
2023/07/19 00:19:30;;;;;;;20.48;19.05;;;11.90;99.90;;;;;;5036786;28;20643;-70
2023/07/19 00:21:56;;;;;;;20.52;18.92;;;11.90;99.90;;;;;;5028903;28;20111;-70
2023/07/19 00:24:23;;;;;;;21.77;20.10;;;11.80;99.90;;;;;;5029772;28;20053;-70
2023/07/19 00:26:50;;;;;;;20.90;19.23;;;11.80;99.90;;;;;;5034984;28;20049;-70
2023/07/19 00:29:17;;;;;;;20.45;18.92;;;11.80;99.90;;;;;;5034993;28;20043;-72
2023/07/19 00:31:44;;;;;;;20.20;18.70;;;11.80;99.90;;;;;;5035786;28;20041;-70
2023/07/19 00:34:11;;;;;;;20.10;18.50;;;11.70;99.90;;;;;;5035863;28;20094;-70
2023/07/19 00:36:38;;;;;;;19.95;18.65;;;11.60;99.90;;;;;;5030766;28;20040;-70
2023/07/19 00:39:05;;;;;;;21.75;19.50;;;11.60;99.90;;;;;;5032562;28;20061;-70
2023/07/19 00:41:31;;;;;;;20.52;18.85;;;11.50;99.90;;;;;;5031563;28;20527;-70
2023/07/19 00:43:58;;;;;;;19.85;18.55;;;11.40;99.90;;;;;;5035287;28;20051;-72
2023/07/19 00:46:26;;;;;;;21.35;19.52;;;11.40;99.90;;;;;;5039886;28;20527;-69
2023/07/19 00:48:54;;;;;;;20.25;18.52;;;11.20;99.90;;;;;;5032603;28;20589;-70
2023/07/19 00:51:21;;;;;;;20.67;19.17;;;11.10;99.90;;;;;;5028484;28;20672;-71
2023/07/19 00:53:49;;;;;;;20.75;18.85;;;11.20;99.90;;;;;;5033781;28;20037;-71
2023/07/19 00:56:17;;;;;;;19.63;18.33;;;11.20;99.90;;;;;;5028411;28;20549;-71
2023/07/19 00:58:44;;;;;;;19.45;18.02;;;11.30;99.90;;;;;;5029279;28;20049;-71
2023/07/19 01:01:11;;;;;;;20.45;19.02;;;11.40;99.90;;;;;;5031896;28;20091;-71
2023/07/19 01:03:38;;;;;;;19.63;18.17;;;11.40;99.90;;;;;;5031940;28;20131;-71
2023/07/19 01:06:05;;;;;;;20.70;19.00;;;11.30;99.90;;;;;;5034698;28;20049;-71
2023/07/19 01:08:32;;;;;;;19.85;18.27;;;11.30;99.90;;;;;;5037269;28;20711;-71
2023/07/19 01:10:59;;;;;;;19.10;17.67;;;11.40;99.90;;;;;;5028680;28;20058;-70
2023/07/19 01:13:26;;;;;;;18.77;17.27;;;11.30;99.90;;;;;;5039681;28;20053;-70
2023/07/19 01:15:54;;;;;;;18.92;17.52;;;11.30;99.90;;;;;;5033928;28;20496;-71
2023/07/19 01:18:21;;;;;;;19.05;17.48;;;11.20;99.90;;;;;;5036765;28;20978;-71
2023/07/19 01:20:48;;;;;;;18.00;16.40;;;11.10;99.90;;;;;;5037262;28;20057;-71
2023/07/19 01:23:15;;;;;;;17.20;15.90;;;11.20;99.90;;;;;;5052593;28;20066;-71
2023/07/19 01:25:42;;;;;;;19.42;17.70;;;11.10;99.90;;;;;;5040830;28;20056;-71
2023/07/19 01:28:10;;;;;;;17.77;16.35;;;11.00;99.90;;;;;;5041740;28;20044;-71
2023/07/19 01:30:36;;;;;;;19.60;17.92;;;11.00;99.90;;;;;;5050049;28;20037;-71
2023/07/19 01:33:03;;;;;;;17.52;16.23;;;11.20;99.90;;;;;;5047945;28;20041;-71
2023/07/19 01:35:32;;;;;;;17.95;16.75;;;11.10;99.90;;;;;;5038001;28;20054;-71
2023/07/19 01:37:59;;;;;;;17.90;16.58;;;11.20;99.90;;;;;;5036092;28;20634;-70
2023/07/19 01:40:26;;;;;;;18.33;16.83;;;11.30;99.90;;;;;;5033934;28;20051;-70
2023/07/19 01:42:52;;;;;;;19.10;17.23;;;11.30;99.90;;;;;;5035489;28;20761;-70
2023/07/19 01:45:19;;;;;;;19.17;17.77;;;11.30;99.90;;;;;;5035807;28;20049;-71
2023/07/19 01:47:46;;;;;;;19.73;18.17;;;11.30;99.90;;;;;;5029727;28;20071;-71
2023/07/19 01:50:13;;;;;;;19.08;17.70;;;11.40;99.90;;;;;;5034121;28;20095;-70
2023/07/19 01:52:40;;;;;;;18.92;17.33;;;11.30;99.90;;;;;;5028615;28;20049;-70
2023/07/19 01:55:07;;;;;;;19.05;17.60;;;11.30;99.90;;;;;;5026151;28;20037;-70
2023/07/19 01:57:34;;;;;;;19.45;17.65;;;11.30;99.90;;;;;;5032452;28;20065;-70
2023/07/19 02:00:02;;;;;;;19.80;18.20;;;11.30;99.90;;;;;;5035069;28;20060;-70
2023/07/19 02:02:41;;;;;;;19.13;17.67;;;11.40;99.90;;;;;;5030993;28;20051;-70
2023/07/19 02:05:08;;;;;;;19.90;18.02;;;11.50;99.90;;;;;;5024784;28;20064;-70
2023/07/19 02:07:35;;;;;;;20.38;18.67;;;11.50;99.90;;;;;;5030393;28;20395;-70
2023/07/19 02:10:03;;;;;;;19.35;17.88;;;11.60;99.90;;;;;;5046685;28;20049;-70
2023/07/19 02:12:30;;;;;;;19.08;17.85;;;11.60;99.90;;;;;;5026551;28;20557;-71
2023/07/19 02:14:56;;;;;;;20.02;18.45;;;11.60;99.90;;;;;;5029354;28;20045;-70
2023/07/19 02:17:23;;;;;;;19.17;17.75;;;11.80;99.90;;;;;;5034505;28;20522;-70
2023/07/19 02:19:50;;;;;;;19.48;17.95;;;11.90;99.90;;;;;;5027973;28;20578;-70
2023/07/19 02:22:17;;;;;;;20.33;18.77;;;11.90;99.90;;;;;;5030596;28;20072;-71
2023/07/19 02:24:44;;;;;;;20.65;18.55;;;12.00;99.90;;;;;;5027790;28;20041;-72
2023/07/19 02:27:11;;;;;;;19.65;18.13;;;11.90;99.90;;;;;;5032689;28;20119;-70
2023/07/19 02:29:37;;;;;;;19.33;18.00;;;11.80;99.90;;;;;;5035197;28;20037;-70
2023/07/19 02:32:04;;;;;;;20.48;18.63;;;11.90;99.90;;;;;;5034767;28;20510;-70
2023/07/19 02:34:31;;;;;;;19.98;18.55;;;12.00;99.90;;;;;;5029153;28;20053;-73
2023/07/19 02:36:58;;;;;;;20.48;19.05;;;12.00;99.90;;;;;;5030027;28;20491;-72
2023/07/19 02:39:29;;;;;;;19.85;18.33;;;12.00;99.90;;;;;;5036580;28;20045;-72
2023/07/19 02:41:57;;;;;;;19.85;18.27;;;11.90;99.90;;;;;;5039163;28;20691;-71
2023/07/19 02:44:24;;;;;;;19.63;17.98;;;12.00;99.90;;;;;;5031709;28;20617;-71
2023/07/19 02:46:51;;;;;;;19.38;18.08;;;11.80;99.90;;;;;;5027247;28;21671;-71
2023/07/19 02:49:17;;;;;;;19.85;18.13;;;11.80;99.90;;;;;;5030974;28;20041;-71
2023/07/19 02:51:44;;;;;;;20.55;18.85;;;11.60;99.90;;;;;;5048982;28;20052;-72
2023/07/19 02:54:11;;;;;;;19.42;17.92;;;11.80;99.90;;;;;;5034944;28;20739;-70
2023/07/19 02:56:38;;;;;;;19.48;18.15;;;11.80;99.90;;;;;;5015208;28;20041;-70
2023/07/19 02:59:05;;;;;;;20.00;18.27;;;11.80;99.90;;;;;;5045733;28;20045;-72
2023/07/19 03:01:32;;;;;;;19.85;18.30;;;11.70;99.90;;;;;;5034886;28;20052;-72
2023/07/19 03:03:59;;;;;;;20.20;18.48;;;11.60;99.90;;;;;;5035408;28;20567;-72
2023/07/19 03:06:27;;;;;;;19.73;17.85;;;11.70;99.90;;;;;;5026845;28;20037;-71
2023/07/19 03:08:54;;;;;;;20.70;19.20;;;11.70;99.90;;;;;;5031026;28;20057;-71
2023/07/19 03:11:21;;;;;;;18.65;17.35;;;11.60;99.90;;;;;;5026678;28;20453;-71
2023/07/19 03:13:48;;;;;;;20.23;18.52;;;11.80;99.90;;;;;;5045574;28;20032;-71
2023/07/19 03:16:15;;;;;;;19.02;17.35;;;11.70;99.90;;;;;;5033337;28;20679;-71
2023/07/19 03:18:42;;;;;;;20.05;18.63;;;11.80;99.90;;;;;;5026738;28;20568;-71
2023/07/19 03:21:09;;;;;;;21.45;19.38;;;11.80;99.90;;;;;;5034340;28;20041;-67
2023/07/19 03:23:35;;;;;;;19.98;18.55;;;11.70;99.90;;;;;;5032494;28;20041;-70
2023/07/19 03:26:03;;;;;;;20.35;18.52;;;11.50;99.90;;;;;;5010619;28;20041;-71
2023/07/19 03:28:30;;;;;;;20.67;18.95;;;11.70;99.90;;;;;;5029060;28;20135;-70
2023/07/19 03:30:57;;;;;;;20.50;18.70;;;11.70;99.90;;;;;;5032708;28;20047;-70
2023/07/19 03:33:25;;;;;;;19.13;17.40;;;11.60;99.90;;;;;;5027568;28;20050;-71
2023/07/19 03:35:52;;;;;;;18.15;16.65;;;11.60;99.90;;;;;;5037136;28;20777;-70
2023/07/19 03:38:20;;;;;;;19.08;17.63;;;11.70;99.90;;;;;;5032166;28;20041;-70
2023/07/19 03:40:48;;;;;;;18.52;16.77;;;11.80;99.90;;;;;;5043500;28;20503;-70
2023/07/19 03:43:16;;;;;;;19.13;17.63;;;11.90;99.90;;;;;;5033086;28;20072;-70
2023/07/19 03:45:42;;;;;;;18.23;16.88;;;12.00;99.90;;;;;;5031002;28;20045;-71
2023/07/19 03:48:09;;;;;;;19.30;17.73;;;11.80;99.90;;;;;;5028773;28;20041;-70
2023/07/19 03:50:36;;;;;;;18.77;17.33;;;11.90;99.90;;;;;;5032279;28;20045;-70
2023/07/19 03:53:04;;;;;;;18.70;17.17;;;11.90;99.90;;;;;;5029796;28;20044;-70
2023/07/19 03:55:32;;;;;;;19.02;17.30;;;11.80;99.90;;;;;;5037014;28;20053;-71
2023/07/19 03:57:59;;;;;;;18.58;17.13;;;11.80;99.90;;;;;;5024789;28;20756;-71
2023/07/19 04:00:27;;;;;;;19.27;17.85;;;11.90;99.90;;;;;;5034586;28;20145;-71
2023/07/19 04:02:53;;;;;;;18.75;17.05;;;11.90;99.90;;;;;;5031553;28;20044;-71
2023/07/19 04:05:21;;;;;;;18.35;17.15;;;11.90;99.90;;;;;;5032914;28;20057;-71
2023/07/19 04:07:47;;;;;;;19.67;18.17;;;12.00;99.90;;;;;;5036793;28;20033;-71
2023/07/19 04:10:14;;;;;;;20.17;18.35;;;12.00;99.90;;;;;;5026032;28;20060;-70
2023/07/19 04:12:41;;;;;;;20.13;18.63;;;12.00;99.90;;;;;;5030018;28;20347;-70
2023/07/19 04:15:08;;;;;;;19.35;17.88;;;11.90;99.90;;;;;;5032525;28;20402;-70
2023/07/19 04:17:35;;;;;;;18.83;17.42;;;12.00;99.90;;;;;;5027748;28;20068;-72
2023/07/19 04:20:02;;;;;;;18.63;17.42;;;12.10;99.90;;;;;;5030000;28;20045;-71
2023/07/19 04:22:28;;;;;;;20.55;18.70;;;12.00;99.90;;;;;;5032128;28;20052;-71
2023/07/19 04:24:55;;;;;;;19.25;17.77;;;12.20;99.90;;;;;;5034235;28;20049;-71
2023/07/19 04:27:22;;;;;;;19.75;18.05;;;12.40;99.90;;;;;;5012557;28;20052;-71
2023/07/19 04:29:49;;;;;;;20.15;18.60;;;12.40;99.90;;;;;;5037851;28;20041;-71
2023/07/19 04:32:16;;;;;;;20.33;18.60;;;12.50;99.90;;;;;;5034417;28;20045;-72
2023/07/19 04:34:43;;;;;;;20.88;19.15;;;12.50;99.90;;;;;;5037627;28;20036;-71
2023/07/19 04:37:10;;;;;;;20.70;19.15;;;12.40;99.90;;;;;;5015596;28;20041;-71
2023/07/19 04:39:36;;;;;;;20.63;19.13;;;12.30;99.90;;;;;;5032237;28;20060;-71
2023/07/19 04:42:04;;;;;;;20.23;18.83;;;12.50;99.90;;;;;;5027013;28;20048;-71
2023/07/19 04:44:31;;;;;;;19.85;18.33;;;12.70;99.90;;;;;;5028340;28;20052;-71
2023/07/19 04:46:58;;;;;;;20.83;19.27;;;12.70;99.90;;;;;;5047905;28;20033;-71
2023/07/19 04:49:25;;;;;;;20.63;19.05;;;12.80;99.90;;;;;;5036509;28;20626;-72
2023/07/19 04:51:52;;;;;;;21.83;19.98;;;12.70;99.90;;;;;;5030717;28;20065;-71
2023/07/19 04:54:19;;;;;;;20.52;19.02;;;12.70;99.90;;;;;;5047197;28;20064;-71
2023/07/19 04:56:46;;;;;;;20.30;18.63;;;12.80;99.90;;;;;;5044800;28;20036;-71
2023/07/19 04:59:13;;;;;;;20.38;18.90;;;12.90;99.90;;;;;;5030852;28;20641;-71
2023/07/19 05:01:43;;;;;;;20.52;19.00;;;12.90;99.90;;;;;;5035638;28;20276;-71
2023/07/19 05:04:10;;;;;;;20.83;19.05;;;13.10;99.90;;;;;;5035903;28;20744;-71
2023/07/19 05:06:36;;;;;;;21.60;19.85;;;13.20;99.90;;;;;;5035094;28;20530;-71
2023/07/19 05:09:03;;;;;;;21.80;20.10;;;13.40;99.90;;;;;;5032356;28;20103;-71
2023/07/19 05:11:30;;;;;;;24.48;22.50;;;13.80;99.90;;;;;;5051987;28;20061;-72
2023/07/19 05:13:57;;;;;;;24.60;22.75;;;14.00;99.90;;;;;;5036257;28;20048;-72
2023/07/19 05:16:24;;;;;;;23.17;21.52;;;14.10;99.90;;;;;;5027581;28;20744;-72
2023/07/19 05:18:52;;;;;;;23.55;21.50;;;14.10;99.90;;;;;;5040418;28;20338;-71
2023/07/19 05:21:18;;;;;;;22.92;21.25;;;14.10;99.90;;;;;;5019485;28;20045;-72
2023/07/19 05:23:46;;;;;;;22.67;21.05;;;14.20;99.90;;;;;;5052546;28;20146;-72
2023/07/19 05:26:13;;;;;;;22.98;21.27;;;14.30;99.90;;;;;;5038169;28;20050;-72
2023/07/19 05:28:40;;;;;;;25.13;22.95;;;14.30;99.90;;;;;;5028603;28;20126;-71
2023/07/19 05:31:09;;;;;;;24.30;22.38;;;14.40;99.90;;;;;;5027115;28;20046;-72
2023/07/19 05:33:36;;;;;;;24.33;22.25;;;14.50;99.90;;;;;;5025563;28;20077;-71
2023/07/19 05:36:04;;;;;;;26.02;23.23;;;14.70;99.90;;;;;;5022648;28;20049;-72
2023/07/19 05:38:32;;;;;;;24.83;23.13;;;14.90;99.90;;;;;;5032847;28;20788;-71
2023/07/19 05:41:03;;;;;;;25.90;23.83;;;15.10;99.90;;;;;;5029692;28;20511;-71
2023/07/19 05:43:31;;;;;;;24.70;22.63;;;15.10;99.90;;;;;;5032393;28;20083;-71
2023/07/19 05:46:08;;;;;;;23.88;22.17;;;15.20;99.90;;;;;;5039284;28;20118;-72
2023/07/19 05:48:35;;;;;;;23.27;21.67;;;15.30;99.90;;;;;;5031561;28;20050;-72
2023/07/19 05:51:04;;;;;;;25.30;22.80;;;15.40;99.90;;;;;;5027882;28;20040;-72
2023/07/19 05:53:31;;;;;;;24.63;22.92;;;15.60;99.90;;;;;;5032207;28;20040;-71
2023/07/19 05:55:58;;;;;;;24.48;22.67;;;15.60;99.90;;;;;;5033953;28;20445;-70
2023/07/19 05:58:27;;;;;;;26.17;24.00;;;15.80;99.90;;;;;;5031799;28;20059;-70
2023/07/19 06:00:53;;;;;;;25.38;23.48;;;15.90;99.90;;;;;;5037136;28;20130;-70
2023/07/19 06:03:20;;;;;;;25.65;23.60;;;16.10;99.90;;;;;;5028821;28;20044;-70
2023/07/19 06:05:48;;;;;;;24.70;22.85;;;16.20;99.90;;;;;;5031258;28;20045;-72
2023/07/19 06:08:15;;;;;;;26.08;23.98;;;16.40;99.90;;;;;;5029008;28;20091;-72
2023/07/19 06:10:51;;;;;;;25.15;23.35;;;16.50;99.90;;;;;;5038481;28;20048;-72
2023/07/19 06:13:18;;;;;;;25.40;23.35;;;16.60;99.90;;;;;;5025695;28;20041;-72
2023/07/19 06:15:45;;;;;;;24.90;23.17;;;16.80;99.90;;;;;;5041597;28;20037;-72
2023/07/19 06:18:12;;;;;;;25.73;23.88;;;16.90;99.90;;;;;;5027748;28;20041;-72
2023/07/19 06:20:38;;;;;;;27.13;24.63;;;17.00;99.90;;;;;;5032902;28;20160;-71
2023/07/19 06:23:05;;;;;;;26.05;24.27;;;17.10;99.90;;;;;;5031576;28;20507;-75
2023/07/19 06:25:32;;;;;;;25.23;23.48;;;17.30;99.90;;;;;;5031126;28;20106;-74
2023/07/19 06:27:59;;;;;;;25.65;23.95;;;17.40;99.90;;;;;;5035609;28;20094;-73
2023/07/19 06:30:26;;;;;;;26.58;24.63;;;17.50;99.90;;;;;;5037920;28;20612;-73
2023/07/19 06:32:53;;;;;;;27.35;24.92;;;17.60;99.90;;;;;;5027949;28;20041;-73
2023/07/19 06:35:20;;;;;;;27.63;25.23;;;17.70;99.90;;;;;;5029251;28;20057;-73
2023/07/19 06:37:47;;;;;;;26.52;24.52;;;17.70;99.90;;;;;;5034969;28;20049;-75
2023/07/19 06:40:15;;;;;;;27.95;25.88;;;17.70;99.90;;;;;;5024627;28;20041;-75
2023/07/19 06:42:45;;;;;;;27.23;25.25;;;17.80;99.90;;;;;;5033884;28;20046;-73
2023/07/19 06:45:12;;;;;;;26.52;24.52;;;17.80;99.90;;;;;;5036472;28;20053;-73
2023/07/19 06:47:38;;;;;;;25.95;24.10;;;18.00;99.90;;;;;;5025013;28;20037;-72
2023/07/19 06:50:06;;;;;;;27.15;25.02;;;18.30;99.90;;;;;;5029653;28;20090;-75
2023/07/19 06:52:33;;;;;;;27.15;25.15;;;18.40;99.90;;;;;;5026466;28;20057;-76
2023/07/19 06:54:59;;;;;;;30.13;27.52;;;18.60;99.90;;;;;;5028819;28;20056;-74
2023/07/19 06:57:27;;;;;;;27.48;25.58;;;18.90;99.90;;;;;;5039555;28;20053;-75
2023/07/19 06:59:54;;;;;;;29.25;26.65;;;19.30;99.90;;;;;;5025678;28;20111;-73
2023/07/19 07:02:21;;;;;;;30.33;27.83;;;19.60;99.90;;;;;;5030036;28;20066;-74
2023/07/19 07:04:48;;;;;;;29.42;27.13;;;19.60;99.90;;;;;;5030740;28;20049;-75
2023/07/19 07:07:18;;;;;;;30.25;27.73;;;19.80;99.90;;;;;;5035851;28;20574;-74
2023/07/19 07:09:46;;;;;;;29.70;27.17;;;19.90;99.90;;;;;;5032116;28;20090;-75
2023/07/19 07:12:13;;;;;;;31.52;28.77;;;20.00;99.90;;;;;;5029619;28;20037;-74
2023/07/19 07:14:40;;;;;;;31.20;28.38;;;20.00;99.90;;;;;;5031565;28;20068;-73
2023/07/19 07:17:07;;;;;;;33.75;30.40;;;20.30;99.90;;;;;;5025033;28;20068;-72
2023/07/19 07:19:35;;;;;;;33.35;30.42;;;20.40;99.90;;;;;;5035133;28;20143;-72
2023/07/19 07:22:02;;;;;;;30.98;28.35;;;20.40;99.90;;;;;;5031651;28;20528;-73
2023/07/19 07:24:28;;;;;;;30.63;28.02;;;20.50;99.90;;;;;;5025453;28;20411;-73
2023/07/19 07:26:55;;;;;;;32.17;29.60;;;20.60;99.90;;;;;;5036210;28;20113;-73
2023/07/19 07:29:22;;;;;;;31.02;28.67;;;20.40;99.90;;;;;;5034574;28;20741;-73
2023/07/19 07:31:49;;;;;;;31.30;28.65;;;20.00;99.90;;;;;;5018577;28;20115;-73
2023/07/19 07:34:16;;;;;;;31.40;29.08;;;19.90;99.90;;;;;;5032150;28;20075;-73
2023/07/19 07:36:43;;;;;;;31.27;28.80;;;20.00;99.90;;;;;;5025379;28;22540;-72
2023/07/19 07:39:11;;;;;;;32.45;29.70;;;20.20;99.90;;;;;;5023973;28;20041;-73
2023/07/19 07:41:37;;;;;;;30.35;27.98;;;20.60;99.90;;;;;;5027831;28;20064;-73
2023/07/19 07:44:04;;;;;;;31.77;29.48;;;21.00;99.90;;;;;;5034717;28;20034;-74
2023/07/19 07:46:31;;;;;;;32.05;29.42;;;21.40;99.90;;;;;;5024035;28;20041;-74
2023/07/19 07:48:59;;;;;;;33.97;30.63;;;21.50;99.90;;;;;;5039363;28;20060;-74
2023/07/19 07:51:29;;;;;;;33.05;30.35;;;22.00;99.90;;;;;;5030179;28;20083;-74
2023/07/19 07:53:55;;;;;;;30.88;28.20;;;21.90;99.90;;;;;;5034652;28;20044;-74
2023/07/19 07:56:23;;;;;;;29.88;27.75;;;21.90;99.90;;;;;;5032805;28;20037;-74
2023/07/19 07:58:50;;;;;;;30.30;27.80;;;21.70;99.90;;;;;;5045256;28;20068;-74
2023/07/19 08:01:17;;;;;;;30.77;28.23;;;21.40;99.90;;;;;;5032145;28;20037;-74
2023/07/19 08:03:45;;;;;;;30.15;27.95;;;20.80;99.90;;;;;;5037918;28;20050;-73
2023/07/19 08:06:12;;;;;;;31.92;29.35;;;20.40;99.90;;;;;;5031495;28;20135;-74
2023/07/19 08:08:39;;;;;;;33.45;30.65;;;20.10;99.90;;;;;;5034779;28;20096;-73
2023/07/19 08:11:06;;;;;;;32.28;29.60;;;19.80;99.90;;;;;;5039459;28;20048;-74
2023/07/19 08:13:33;;;;;;;32.70;30.38;;;20.00;99.90;;;;;;5037862;28;20060;-74
2023/07/19 08:16:00;;;;;;;31.30;28.70;;;20.20;99.90;;;;;;5038491;28;20751;-73
2023/07/19 08:18:27;;;;;;;32.55;29.88;;;20.60;99.90;;;;;;5029695;28;20033;-74
2023/07/19 08:20:54;;;;;;;30.88;28.67;;;20.60;99.90;;;;;;5036952;28;20076;-74
2023/07/19 08:23:22;;;;;;;31.98;29.50;;;20.70;99.90;;;;;;5032339;28;20573;-74
2023/07/19 08:25:57;;;;;;;31.30;29.00;;;20.80;99.90;;;;;;5040722;28;20070;-74
2023/07/19 08:28:24;;;;;;;;;;;21.00;99.90;;;;;;5029000;28;20608;-73
2023/07/19 08:30:55;;;;;;;31.73;29.20;;;21.10;99.90;;;;;;5037419;28;19925;-73
2023/07/19 08:33:23;;;;;;;32.42;29.83;;;21.00;99.90;;;;;;5040411;28;20050;-73
2023/07/19 08:35:51;;;;;;;31.67;29.38;;;20.80;99.90;;;;;;5038633;28;20071;-74
2023/07/19 08:38:18;;;;;;;31.83;29.00;;;20.80;99.90;;;;;;5022197;28;20404;-74
2023/07/19 08:41:08;;;;;;;32.35;29.65;;;20.90;99.90;;;;;;5039679;28;20583;-74
2023/07/19 08:43:36;;;;;;;31.92;29.55;;;20.70;99.90;;;;;;5032787;28;20053;-74
2023/07/19 08:46:03;;;;;;;32.35;29.77;;;20.50;99.90;;;;;;5021006;28;20060;-73
2023/07/19 08:48:35;;;;;;;33.47;30.13;;;20.20;99.90;;;;;;5017349;28;20124;-73
2023/07/19 08:51:03;;;;;;;32.45;29.88;;;20.30;99.90;;;;;;5039089;28;20126;-73
2023/07/19 08:53:30;;;;;;;33.00;30.40;;;20.30;99.90;;;;;;5033853;28;20055;-74
2023/07/19 08:55:57;;;;;;;35.00;31.70;;;20.20;99.90;;;;;;5039746;28;20041;-74
2023/07/19 08:58:24;;;;;;;33.35;30.10;;;20.00;99.90;;;;;;5028921;28;20526;-74
2023/07/19 09:00:51;;;;;;;32.78;30.13;;;19.90;99.90;;;;;;5057655;28;20334;-74
2023/07/19 09:03:18;;;;;;;35.70;32.63;;;19.80;99.90;;;;;;5037750;28;20040;-73
2023/07/19 09:05:45;;;;;;;34.28;31.30;;;19.70;99.90;;;;;;5035556;28;20048;-74
2023/07/19 09:08:13;;;;;;;33.80;31.05;;;20.00;99.90;;;;;;5021491;28;20051;-74
2023/07/19 09:10:44;;;;;;;32.15;29.52;;;20.20;99.90;;;;;;5025363;28;20418;-74
2023/07/19 09:13:11;;;;;;;34.03;31.33;;;20.30;99.90;;;;;;5029408;28;20426;-74
2023/07/19 09:15:39;;;;;;;33.58;30.98;;;20.50;99.90;;;;;;5041546;28;20080;-74
2023/07/19 09:18:06;;;;;;;33.33;30.70;;;20.90;99.90;;;;;;5037476;28;20090;-74
2023/07/19 09:20:37;;;;;;;34.00;31.10;;;21.40;99.90;;;;;;5033100;28;20302;-73
2023/07/19 09:23:05;;;;;;;33.97;31.35;;;22.20;99.90;;;;;;5042986;28;20069;-73
2023/07/19 09:25:49;;;;;;;32.10;29.58;;;22.30;99.90;;;;;;5029514;28;20049;-74
2023/07/19 09:28:20;;;;;;;33.00;30.50;;;22.00;99.90;;;;;;5041069;28;20297;-74
2023/07/19 09:31:01;;;;;;;33.50;30.73;;;21.60;99.90;;;;;;5052485;28;20048;-74
2023/07/19 09:33:48;;;;;;;32.95;30.55;;;21.10;99.90;;;;;;5039130;28;20044;-74
2023/07/19 09:36:18;;;;;;;34.05;30.90;;;20.60;99.90;;;;;;5050355;28;20044;-72
2023/07/19 09:38:46;;;;;;;33.38;30.92;;;20.60;99.90;;;;;;5050395;28;20083;-74
2023/07/19 09:41:13;;;;;;;33.50;30.55;;;20.60;99.90;;;;;;5042194;28;20438;-74
2023/07/19 09:43:42;;;;;;;32.80;30.23;;;20.70;99.90;;;;;;5037726;28;20048;-73
2023/07/19 09:46:09;;;;;;;34.63;30.98;;;20.50;99.90;;;;;;5032606;28;20037;-72
2023/07/19 09:48:36;;;;;;;33.50;30.45;;;20.20;99.90;;;;;;5032953;28;20142;-73
2023/07/19 09:51:03;;;;;;;34.72;31.83;;;20.00;99.90;;;;;;5039553;28;20357;-73
2023/07/19 09:53:32;;;;;;;31.00;28.60;;;20.10;99.90;;;;;;5028194;28;20041;-73
2023/07/19 09:56:00;;;;;;;32.05;29.40;;;20.20;99.90;;;;;;5037873;28;20041;-73
2023/07/19 09:58:28;;;;;;;32.72;29.80;;;20.10;99.90;;;;;;5032364;28;20044;-74
2023/07/19 10:00:57;;;;;;;32.47;29.98;;;19.60;99.90;;;;;;5031861;28;20056;-74
2023/07/19 10:03:24;;;;;;;31.90;29.33;;;19.50;99.90;;;;;;5030941;28;20115;-73
2023/07/19 10:05:57;;;;;;;31.55;29.25;;;19.50;99.90;;;;;;5036779;28;21531;-73
2023/07/19 10:08:24;;;;;;;31.85;29.42;;;19.40;99.90;;;;;;5029166;28;20059;-73
2023/07/19 10:10:59;;;;;;;32.38;29.88;;;19.60;99.90;;;;;;5025906;28;20053;-73
2023/07/19 10:13:31;;;;;;;33.72;31.05;;;19.40;99.90;;;;;;5034425;28;20082;-73
2023/07/19 10:15:57;;;;;;;30.70;28.35;;;19.10;99.90;;;;;;5034997;28;20094;-73
2023/07/19 10:18:24;;;;;;;31.38;28.88;;;19.30;99.90;;;;;;5034632;28;20056;-74
2023/07/19 10:21:03;;;;;;;33.03;30.02;;;19.40;99.90;;;;;;5035202;28;20525;-75
2023/07/19 10:23:30;;;;;;;32.40;29.95;;;19.60;99.90;;;;;;5023641;28;20114;-74
2023/07/19 10:26:09;;;;;;;35.53;32.55;;;19.50;99.90;;;;;;5033472;28;20106;-74
2023/07/19 10:28:38;;;;;;;35.92;33.22;;;19.80;99.90;;;;;;5026971;28;20045;-74
2023/07/19 10:31:07;;;;;;;31.65;28.92;;;20.30;99.90;;;;;;5027707;28;20107;-73
2023/07/19 10:33:55;;;;;;;32.03;29.65;;;20.70;99.90;;;;;;5050397;28;20119;-72
2023/07/19 10:36:22;;;;;;;33.08;30.38;;;21.00;99.90;;;;;;5031664;28;20053;-73
2023/07/19 10:38:49;;;;;;;33.35;30.65;;;21.20;99.90;;;;;;5029322;28;20036;-73
2023/07/19 10:41:19;;;;;;;32.20;29.65;;;21.20;99.90;;;;;;5030509;28;20045;-72
2023/07/19 10:43:46;;;;;;;32.78;30.05;;;21.20;99.90;;;;;;5029184;28;20622;-73
2023/07/19 10:46:18;;;;;;;34.45;31.42;;;21.10;99.90;;;;;;5028453;28;20102;-73
2023/07/19 10:48:51;;;;;;;33.28;30.58;;;21.10;99.90;;;;;;5039972;28;20037;-70
2023/07/19 10:51:18;;;;;;;32.25;29.85;;;21.10;99.90;;;;;;5028803;28;20156;-69
2023/07/19 10:53:59;;;;;;;34.33;31.63;;;21.20;99.90;;;;;;5028688;28;20035;-69
2023/07/19 10:56:27;;;;;;;33.05;30.45;;;21.30;99.90;;;;;;5031429;28;20083;-69
2023/07/19 10:58:58;;;;;;;31.17;28.88;;;21.00;99.90;;;;;;5033192;28;20737;-69
2023/07/19 11:01:28;;;;;;;32.80;30.15;;;20.90;99.90;;;;;;5033540;28;20049;-69
2023/07/19 11:04:03;;;;;;;32.88;30.23;;;20.70;99.90;;;;;;5031037;28;20073;-70
2023/07/19 11:06:31;;;;;;;32.05;29.58;;;20.50;99.90;;;;;;5020198;28;20073;-71
2023/07/19 11:09:06;;;;;;;34.15;31.40;;;20.20;99.90;;;;;;5031617;28;20581;-70
2023/07/19 11:11:38;;;;;;;35.95;32.20;;;20.20;99.90;;;;;;5027682;28;20071;-71
2023/07/19 11:14:05;;;;;;;34.58;31.30;;;20.20;99.90;;;;;;5030305;28;20515;-70
2023/07/19 11:16:33;;;;;;;33.28;30.65;;;20.10;99.90;;;;;;5031945;28;20545;-70
2023/07/19 11:19:00;;;;;;;30.88;28.45;;;20.10;99.90;;;;;;5035334;28;20151;-71
2023/07/19 11:21:28;;;;;;;34.90;32.08;;;20.10;99.90;;;;;;5028001;28;20066;-71
2023/07/19 11:23:55;;;;;;;34.70;31.75;;;19.90;99.90;;;;;;5026138;28;20072;-71
2023/07/19 11:26:21;;;;;;;35.00;32.17;;;19.80;99.90;;;;;;5027071;28;20111;-70
2023/07/19 11:28:54;;;;;;;36.90;33.55;;;19.90;99.90;;;;;;5033523;28;20040;-70
2023/07/19 11:31:35;;;;;;;33.47;30.58;;;20.00;99.90;;;;;;5030378;28;20044;-70
2023/07/19 11:34:08;;;;;;;33.40;30.63;;;20.20;99.90;;;;;;5034977;28;20041;-71
2023/07/19 11:36:42;;;;;;;31.40;29.08;;;20.30;99.90;;;;;;5043042;28;20044;-70
2023/07/19 11:39:23;;;;;;;33.43;30.03;;;20.40;99.90;;;;;;5031634;28;20055;-71
2023/07/19 11:41:50;;;;;;;29.83;27.60;;;20.40;99.90;;;;;;5030217;28;20045;-71
2023/07/19 11:44:24;;;;;;;32.28;29.92;;;20.30;99.90;;;;;;5018390;28;20103;-70
2023/07/19 11:46:52;;;;;;;30.80;28.48;;;20.40;99.90;;;;;;5027503;28;20111;-70
2023/07/19 11:49:19;;;;;;;30.05;27.85;;;20.50;99.90;;;;;;5017651;28;20045;-71
2023/07/19 11:51:46;;;;;;;29.83;27.63;;;20.60;99.90;;;;;;5027829;28;20048;-70
2023/07/19 11:54:15;;;;;;;30.65;28.20;;;20.30;99.90;;;;;;5033159;28;20040;-70
2023/07/19 11:56:42;;;;;;;29.73;27.58;;;20.00;99.90;;;;;;5027264;28;20692;-71
2023/07/19 11:59:09;;;;;;;30.67;28.27;;;20.10;99.90;;;;;;5056612;28;20037;-71
2023/07/19 12:01:36;;;;;;;29.55;27.52;;;20.20;99.90;;;;;;5035137;28;20119;-71
2023/07/19 12:04:03;;;;;;;32.05;29.95;;;20.20;99.90;;;;;;5032936;28;20492;-68
2023/07/19 12:06:31;;;;;;;32.92;30.55;;;20.30;99.90;;;;;;5028636;28;20051;-71
2023/07/19 12:08:58;;;;;;;33.00;30.52;;;20.20;99.90;;;;;;5031517;28;20050;-73
2023/07/19 12:11:25;;;;;;;32.55;30.23;;;20.30;99.90;;;;;;5024480;28;20530;-69
2023/07/19 12:13:52;;;;;;;30.98;28.73;;;20.60;99.90;;;;;;5035763;28;20037;-71
2023/07/19 12:16:18;;;;;;;29.08;26.95;;;20.70;99.90;;;;;;5028425;28;20412;-70
2023/07/19 12:18:46;;;;;;;29.40;27.20;;;20.50;99.90;;;;;;5026017;28;20037;-71
2023/07/19 12:21:13;;;;;;;30.70;28.23;;;20.70;99.90;;;;;;5037200;28;20656;-71
2023/07/19 12:23:40;;;;;;;31.38;28.77;;;21.00;99.90;;;;;;5024953;28;20135;-71
2023/07/19 12:26:10;;;;;;;33.45;30.77;;;20.90;99.90;;;;;;5031868;28;20568;-71
2023/07/19 12:28:37;;;;;;;31.98;29.60;;;20.80;99.90;;;;;;5037968;28;20076;-69
2023/07/19 12:31:04;;;;;;;31.95;29.65;;;20.90;99.90;;;;;;5024815;28;20685;-69
2023/07/19 12:33:30;;;;;;;32.85;30.35;;;20.70;99.90;;;;;;5029754;28;20043;-69